NO-0032 weather

Bøverbru Airfield
Oppland, Norway

Public forecast

Using degrees Celsius for public forecast. Weather courtesy of forecast.io.

Closest aviation weather report (METAR) to Bøverbru Airfield

Closest report is Oslo Gardermoen Airport, 29.4 nm (54.5 km) SSE. Retrieved 2020/07/10 16:20 UTC (26 minutes ago):

ENGM 101620Z 31005KT 270V360 9999 FEW049CB SCT080 16/06 Q1006 NOSIG

Closest aviation forecast (TAF) to Bøverbru Airfield

Closest forecast is Oslo Gardermoen Airport, 29.4 nm (54.5 km) SSE. Retrieved 2020/07/10 12:57 UTC (4 hours ago):

TAF ENGM 101100Z 1012/1112 VRB07KT 9999 FEW030TCU SCT060 TEMPO 1012/1021 SHRA SCT020CB BKN030 PROB40 TEMPO 1012/1019 4000 TSRA PROB30 1023/1105 BKN004 BECMG 1105/1107 33010KT